Time;durP1;ratioP1;P1;durP2;ratioP2;P2;SDS_P1;SDS_P2;PMS_P1;PMS_P2;Temp;Humidity;BMP_temperature;BMP_pressure;BME280_temperature;BME280_humidity;BME280_pressure;Samples;Min_cycle;Max_cycle;Signal;HPM_P1;HPM_P2
2020/12/01 00:01:22;;;;;;;49.40;25.17;;;1.10;99.90;;;;;;5029279;28;20021;-71
2020/12/01 00:03:47;;;;;;;47.83;24.35;;;1.00;99.90;;;;;;5028366;28;20094;-72
2020/12/01 00:06:15;;;;;;;44.90;23.98;;;1.10;99.90;;;;;;5030144;28;20021;-71
2020/12/01 00:08:48;;;;;;;45.92;24.30;;;1.00;99.90;;;;;;5029468;28;20524;-71
2020/12/01 00:11:18;;;;;;;;;;;1.00;99.90;;;;;;5028380;28;20037;-71
2020/12/01 00:13:51;;;;;;;46.45;23.52;;;1.00;99.90;;;;;;5031277;28;19923;-71
2020/12/01 00:16:19;;;;;;;46.15;23.75;;;1.10;99.90;;;;;;5026819;28;20036;-71
2020/12/01 00:18:44;;;;;;;47.28;23.08;;;1.00;99.90;;;;;;5026368;28;20484;-71
2020/12/01 00:21:19;;;;;;;49.20;23.90;;;1.00;99.90;;;;;;5029525;28;20025;-71
2020/12/01 00:23:45;;;;;;;42.20;22.10;;;1.00;99.90;;;;;;5032778;28;20045;-71
2020/12/01 00:26:16;;;;;;;41.97;22.70;;;1.00;99.90;;;;;;5026003;28;20033;-71
2020/12/01 00:28:42;;;;;;;40.85;21.92;;;1.00;99.90;;;;;;5024768;28;20029;-71
2020/12/01 00:31:10;;;;;;;41.80;22.13;;;1.00;99.90;;;;;;5028480;28;20040;-71
2020/12/01 00:33:36;;;;;;;39.97;21.10;;;1.00;99.90;;;;;;5028761;28;20114;-71
2020/12/01 00:36:02;;;;;;;43.08;22.10;;;1.00;99.90;;;;;;5012268;28;20506;-71
2020/12/01 00:38:30;;;;;;;43.30;21.90;;;1.00;99.90;;;;;;5029127;28;20090;-71
2020/12/01 00:40:58;;;;;;;44.63;22.95;;;1.00;99.90;;;;;;5027150;28;20096;-71
2020/12/01 00:43:23;;;;;;;48.08;23.13;;;0.90;99.90;;;;;;5029325;28;20661;-71
2020/12/01 00:45:51;;;;;;;44.17;22.85;;;0.90;99.90;;;;;;5025796;28;20017;-71
2020/12/01 00:48:21;;;;;;;44.47;23.02;;;0.90;99.90;;;;;;5031346;28;20033;-71
2020/12/01 00:50:49;;;;;;;43.88;23.02;;;0.90;99.90;;;;;;5026829;28;20104;-71
2020/12/01 00:53:15;;;;;;;45.25;22.23;;;0.80;99.90;;;;;;5025767;28;20135;-71
2020/12/01 00:55:41;;;;;;;43.50;22.10;;;0.80;99.90;;;;;;5027681;28;20026;-71
2020/12/01 00:58:09;;;;;;;42.90;21.35;;;0.80;99.90;;;;;;5024096;28;20129;-71
2020/12/01 01:00:37;;;;;;;42.13;21.75;;;0.90;99.90;;;;;;5025774;28;20038;-71
2020/12/01 01:03:05;;;;;;;43.25;21.30;;;0.80;99.90;;;;;;5028024;28;20036;-71
2020/12/01 01:05:32;;;;;;;40.22;20.70;;;0.90;99.90;;;;;;5027551;28;20098;-71
2020/12/01 01:07:58;;;;;;;42.28;20.88;;;0.80;99.90;;;;;;5041530;28;20370;-71
2020/12/01 01:10:26;;;;;;;38.78;19.55;;;0.90;99.90;;;;;;5027245;28;20021;-71
2020/12/01 01:12:54;;;;;;;41.53;20.30;;;0.90;99.90;;;;;;5027669;28;20048;-71
2020/12/01 01:15:23;;;;;;;36.08;18.25;;;0.90;99.90;;;;;;5043995;28;20038;-71
2020/12/01 01:17:49;;;;;;;40.00;19.40;;;1.00;99.90;;;;;;5042875;28;20034;-71
2020/12/01 01:20:14;;;;;;;39.65;19.23;;;1.00;99.90;;;;;;5026895;28;20041;-71
2020/12/01 01:22:42;;;;;;;38.83;18.90;;;1.00;99.90;;;;;;5025893;28;20380;-71
2020/12/01 01:25:08;;;;;;;39.78;19.30;;;1.00;99.90;;;;;;5027373;28;20530;-71
2020/12/01 01:27:38;;;;;;;38.08;19.02;;;1.00;99.90;;;;;;5028127;28;20108;-71
2020/12/01 01:30:06;;;;;;;38.50;19.08;;;1.00;99.90;;;;;;5027625;28;20040;-71
2020/12/01 01:32:32;;;;;;;39.85;18.42;;;1.00;99.90;;;;;;5027766;28;20029;-71
2020/12/01 01:35:01;;;;;;;42.10;19.42;;;1.00;99.90;;;;;;5027988;28;20477;-71
2020/12/01 01:37:26;;;;;;;38.97;19.45;;;1.00;99.90;;;;;;5029871;28;20040;-71
2020/12/01 01:39:52;;;;;;;37.15;19.05;;;1.00;99.90;;;;;;5026820;28;20398;-71
2020/12/01 01:42:22;;;;;;;36.83;17.88;;;1.00;99.90;;;;;;5029288;28;21030;-71
2020/12/01 01:44:48;;;;;;;36.40;18.98;;;1.00;99.90;;;;;;5027999;28;20029;-71
2020/12/01 01:47:24;;;;;;;40.00;18.58;;;1.00;99.90;;;;;;5015765;28;20131;-71
2020/12/01 01:50:12;;;;;;;35.70;18.38;;;1.10;99.90;;;;;;5025264;28;20066;-71
2020/12/01 01:52:42;;;;;;;37.22;19.55;;;1.10;99.90;;;;;;4996765;28;20437;-71
2020/12/01 01:55:35;;;;;;;40.53;19.65;;;1.10;99.90;;;;;;5023866;28;20087;-71
2020/12/01 01:58:02;;;;;;;40.00;19.63;;;1.10;99.90;;;;;;5020529;28;20044;-71
2020/12/01 02:00:58;;;;;;;47.80;21.42;;;1.10;99.90;;;;;;5026717;28;20034;-71
2020/12/01 02:03:32;;;;;;;42.67;19.50;;;1.10;99.90;;;;;;5025535;28;20048;-71
2020/12/01 02:06:00;;;;;;;42.90;20.73;;;1.00;99.90;;;;;;5027028;28;21909;-71
2020/12/01 02:08:28;;;;;;;40.25;20.27;;;1.10;99.90;;;;;;5012396;28;20033;-71
2020/12/01 02:10:56;;;;;;;40.50;19.98;;;1.00;99.90;;;;;;5029920;28;20042;-71
2020/12/01 02:13:38;;;;;;;38.05;19.13;;;1.00;99.90;;;;;;5020149;28;20043;-70
2020/12/01 02:16:04;;;;;;;37.75;18.80;;;1.10;99.90;;;;;;5020182;28;20078;-71
2020/12/01 02:18:31;;;;;;;39.15;19.40;;;1.10;99.90;;;;;;5029706;28;20037;-71
2020/12/01 02:20:57;;;;;;;40.38;19.35;;;1.10;99.90;;;;;;5031166;28;20024;-71
2020/12/01 02:23:23;;;;;;;38.72;18.88;;;1.10;99.90;;;;;;4999725;28;20494;-71
2020/12/01 02:25:51;;;;;;;38.58;19.08;;;1.10;99.90;;;;;;5029474;28;20630;-71
2020/12/01 02:28:19;;;;;;;33.83;17.73;;;1.10;99.90;;;;;;5033133;28;20116;-71
2020/12/01 02:30:49;;;;;;;38.13;18.73;;;1.10;99.90;;;;;;5028611;28;20037;-71
2020/12/01 02:33:17;;;;;;;37.88;17.90;;;1.20;99.90;;;;;;5032438;28;20026;-71
2020/12/01 02:35:43;;;;;;;35.60;17.77;;;1.20;99.90;;;;;;5033224;28;20127;-71
2020/12/01 02:38:09;;;;;;;35.85;18.20;;;1.20;99.90;;;;;;5033064;28;20084;-71
2020/12/01 02:40:34;;;;;;;37.20;17.73;;;1.20;99.90;;;;;;5031179;28;20695;-70
2020/12/01 02:43:00;;;;;;;35.20;17.70;;;1.20;99.90;;;;;;5029793;28;20470;-70
2020/12/01 02:45:26;;;;;;;35.72;17.45;;;1.30;99.90;;;;;;5028434;28;20024;-71
2020/12/01 02:47:51;;;;;;;32.85;18.15;;;1.30;99.90;;;;;;5016675;28;20028;-71
2020/12/01 02:50:19;;;;;;;34.53;17.10;;;1.20;99.90;;;;;;5030726;28;20025;-70
2020/12/01 02:52:45;;;;;;;30.40;16.45;;;1.20;99.90;;;;;;5017472;28;20456;-70
2020/12/01 02:55:13;;;;;;;38.72;18.02;;;1.20;99.90;;;;;;5031917;28;20029;-71
2020/12/01 02:57:41;;;;;;;33.25;16.75;;;1.20;99.90;;;;;;5028834;28;20033;-70
2020/12/01 03:00:09;;;;;;;35.15;17.58;;;1.20;99.90;;;;;;5029904;28;20021;-70
2020/12/01 03:02:34;;;;;;;35.22;16.73;;;1.30;99.90;;;;;;5034423;28;20025;-70
2020/12/01 03:05:00;;;;;;;32.70;17.33;;;1.20;99.90;;;;;;5029133;28;20017;-70
2020/12/01 03:07:28;;;;;;;28.67;15.52;;;1.20;99.90;;;;;;5033855;28;20532;-70
2020/12/01 03:09:58;;;;;;;31.85;16.25;;;1.30;99.90;;;;;;5029435;28;20037;-70
2020/12/01 03:12:24;;;;;;;31.35;16.20;;;1.30;99.90;;;;;;5030223;28;20040;-70
2020/12/01 03:14:49;;;;;;;31.60;16.27;;;1.30;99.90;;;;;;5028002;28;20109;-71
2020/12/01 03:17:15;;;;;;;31.40;15.63;;;1.20;99.90;;;;;;5025158;28;20036;-70
2020/12/01 03:19:43;;;;;;;26.67;14.68;;;1.20;99.90;;;;;;5031089;28;20022;-70
2020/12/01 03:22:11;;;;;;;27.80;14.43;;;1.30;99.90;;;;;;5031024;28;20037;-70
2020/12/01 03:24:39;;;;;;;32.10;16.40;;;1.40;99.90;;;;;;5028360;28;20142;-70
2020/12/01 03:27:04;;;;;;;30.27;16.13;;;1.30;99.90;;;;;;5034226;28;20476;-70
2020/12/01 03:29:30;;;;;;;32.00;17.52;;;1.30;99.90;;;;;;5031988;28;20039;-70
2020/12/01 03:31:56;;;;;;;32.88;16.95;;;1.30;99.90;;;;;;5027631;28;20101;-70
2020/12/01 03:34:21;;;;;;;32.30;17.23;;;1.30;99.90;;;;;;5032978;28;20056;-70
2020/12/01 03:36:52;;;;;;;28.13;15.38;;;1.30;99.90;;;;;;5029698;28;20079;-70
2020/12/01 03:39:17;;;;;;;34.05;18.10;;;1.30;99.90;;;;;;5033583;28;20042;-70
2020/12/01 03:41:43;;;;;;;34.05;17.70;;;1.20;99.90;;;;;;5034466;28;20041;-70
2020/12/01 03:44:09;;;;;;;32.75;17.85;;;1.30;99.90;;;;;;5020033;28;20870;-70
2020/12/01 03:46:34;;;;;;;30.73;17.00;;;1.30;99.90;;;;;;5026365;28;20022;-70
2020/12/01 03:49:00;;;;;;;30.90;17.33;;;1.30;99.90;;;;;;5028340;28;20034;-70
2020/12/01 03:51:28;;;;;;;30.00;16.52;;;1.40;99.90;;;;;;5027704;28;20021;-70
2020/12/01 03:53:54;;;;;;;31.15;16.48;;;1.40;99.90;;;;;;5029741;28;20025;-70
2020/12/01 03:56:22;;;;;;;29.63;16.30;;;1.40;99.90;;;;;;5028156;28;20108;-70
2020/12/01 03:58:48;;;;;;;26.73;14.90;;;1.50;99.90;;;;;;5034285;28;20037;-70
2020/12/01 04:01:18;;;;;;;31.30;17.27;;;1.40;99.90;;;;;;5032234;28;20091;-70
2020/12/01 04:03:48;;;;;;;30.95;16.80;;;1.40;99.90;;;;;;5026653;28;20041;-70
2020/12/01 04:06:14;;;;;;;30.42;16.95;;;1.40;99.90;;;;;;5024613;28;20091;-70
2020/12/01 04:08:40;;;;;;;31.25;17.48;;;1.40;99.90;;;;;;5028058;28;20030;-70
2020/12/01 04:11:07;;;;;;;28.20;15.68;;;1.40;99.90;;;;;;5029202;28;20415;-70
2020/12/01 04:13:34;;;;;;;26.30;15.13;;;1.40;99.90;;;;;;5030828;28;20096;-70
2020/12/01 04:15:59;;;;;;;31.15;16.60;;;1.40;99.90;;;;;;5027868;28;20050;-70
2020/12/01 04:18:25;;;;;;;32.60;18.20;;;1.40;99.90;;;;;;5027796;28;20063;-71
2020/12/01 04:20:51;;;;;;;32.60;17.10;;;1.40;99.90;;;;;;5027267;28;20022;-70
2020/12/01 04:23:16;;;;;;;30.00;16.50;;;1.50;99.90;;;;;;5028562;28;20062;-70
2020/12/01 04:25:42;;;;;;;28.33;15.80;;;1.40;99.90;;;;;;5024820;28;20100;-70
2020/12/01 04:28:08;;;;;;;31.25;16.55;;;1.50;99.90;;;;;;5028804;28;20053;-70
2020/12/01 04:30:33;;;;;;;28.35;15.38;;;1.50;99.90;;;;;;5026195;28;20458;-70
2020/12/01 04:32:59;;;;;;;34.15;18.30;;;1.50;99.90;;;;;;5030738;28;20537;-70
2020/12/01 04:35:25;;;;;;;31.23;16.75;;;1.50;99.90;;;;;;5028240;28;20030;-70
2020/12/01 04:37:55;;;;;;;28.88;15.95;;;1.50;99.90;;;;;;5016258;28;20045;-71
2020/12/01 04:40:24;;;;;;;26.15;14.30;;;1.50;99.90;;;;;;5028800;28;20117;-70
2020/12/01 04:42:55;;;;;;;30.10;16.55;;;1.60;99.90;;;;;;5016676;28;20037;-70
2020/12/01 04:45:21;;;;;;;29.25;16.30;;;1.60;99.90;;;;;;5029071;28;20455;-70
2020/12/01 04:48:02;;;;;;;32.90;17.55;;;1.60;99.90;;;;;;5025511;28;20094;-70
2020/12/01 04:50:39;;;;;;;29.05;16.38;;;1.60;99.90;;;;;;5028115;28;20605;-70
2020/12/01 04:53:33;;;;;;;31.55;16.70;;;1.60;99.90;;;;;;4999829;28;20043;-70
2020/12/01 04:56:24;;;;;;;32.42;17.77;;;1.70;99.90;;;;;;5018744;28;20493;-70
2020/12/01 04:59:12;;;;;;;30.90;16.15;;;1.70;99.90;;;;;;5027627;28;20044;-70
2020/12/01 05:02:10;;;;;;;34.25;18.05;;;1.70;99.90;;;;;;5026394;28;20043;-70
2020/12/01 05:04:52;;;;;;;35.58;17.77;;;1.60;99.90;;;;;;5020852;28;20502;-70
2020/12/01 05:07:45;;;;;;;33.90;17.25;;;1.70;99.90;;;;;;5019839;28;20136;-70
2020/12/01 05:10:14;;;;;;;29.35;13.55;;;1.60;99.90;;;;;;5028160;28;20037;-70
2020/12/01 05:12:44;;;;;;;38.78;18.98;;;1.60;99.90;;;;;;5027590;28;20037;-70
2020/12/01 05:15:23;;;;;;;37.95;18.33;;;1.60;99.90;;;;;;5044665;28;20028;-70
2020/12/01 05:18:18;;;;;;;39.85;18.58;;;1.60;99.90;;;;;;5012848;28;20383;-70
2020/12/01 05:20:56;;;;;;;43.65;19.10;;;1.60;99.90;;;;;;5028733;28;20637;-70
2020/12/01 05:23:42;;;;;;;38.97;18.95;;;1.60;99.90;;;;;;5029671;28;20136;-70
2020/12/01 05:26:13;;;;;;;36.67;17.67;;;1.60;99.90;;;;;;5042885;28;20082;-70
2020/12/01 05:28:55;;;;;;;36.65;17.23;;;1.60;99.90;;;;;;5025835;28;20105;-70
2020/12/01 05:31:24;;;;;;;36.83;18.15;;;1.60;99.90;;;;;;5031852;28;20039;-70
2020/12/01 05:34:08;;;;;;;36.85;18.08;;;1.60;99.90;;;;;;5032579;28;20037;-70
2020/12/01 05:36:38;;;;;;;38.65;18.20;;;1.70;99.90;;;;;;5029338;28;20036;-70
2020/12/01 05:39:18;;;;;;;35.78;17.58;;;1.70;99.90;;;;;;5015813;28;20025;-70
2020/12/01 05:42:04;;;;;;;34.35;16.48;;;1.70;99.90;;;;;;5031497;28;20042;-70
2020/12/01 05:44:30;;;;;;;40.83;18.88;;;1.70;99.90;;;;;;5048174;28;20033;-70
2020/12/01 05:47:05;;;;;;;40.03;18.83;;;1.70;99.90;;;;;;5032073;28;20486;-70
2020/12/01 05:49:49;;;;;;;38.10;18.58;;;1.70;99.90;;;;;;5031823;28;20025;-70
2020/12/01 05:52:18;;;;;;;42.17;19.75;;;1.70;99.90;;;;;;5031203;28;20037;-70
2020/12/01 05:54:46;;;;;;;41.08;19.52;;;1.70;99.90;;;;;;5043870;28;20033;-70
2020/12/01 05:57:20;;;;;;;38.83;19.50;;;1.80;99.90;;;;;;5027969;28;20053;-70
2020/12/01 05:59:53;;;;;;;41.88;19.73;;;1.80;99.90;;;;;;5035811;28;20022;-70
2020/12/01 06:02:21;;;;;;;35.45;18.23;;;1.80;99.90;;;;;;5029542;28;20473;-70
2020/12/01 06:04:49;;;;;;;44.25;19.85;;;1.80;99.90;;;;;;5028626;28;20028;-70
2020/12/01 06:07:18;;;;;;;34.65;18.65;;;1.90;99.90;;;;;;5049958;28;20041;-70
2020/12/01 06:09:58;;;;;;;38.28;19.25;;;1.90;99.90;;;;;;5017869;28;20040;-70
2020/12/01 06:12:57;;;;;;;36.75;19.55;;;1.90;99.90;;;;;;5030793;28;20353;-70
2020/12/01 06:15:27;;;;;;;40.63;19.48;;;1.90;99.90;;;;;;5036862;28;20079;-71
2020/12/01 06:18:07;;;;;;;35.65;18.25;;;1.90;99.90;;;;;;5029580;28;20477;-70
2020/12/01 06:20:46;;;;;;;36.35;18.08;;;1.90;99.90;;;;;;5031869;28;20055;-70
2020/12/01 06:23:49;;;;;;;37.60;18.48;;;1.90;99.90;;;;;;5048186;28;20060;-70
2020/12/01 06:27:12;;;;;;;34.15;17.52;;;1.90;99.90;;;;;;5029499;28;20034;-70
2020/12/01 06:30:18;;;;;;;39.00;18.48;;;1.90;99.90;;;;;;5048174;28;20354;-70
2020/12/01 06:32:56;;;;;;;48.05;20.52;;;1.90;99.90;;;;;;5011343;28;20036;-70
2020/12/01 06:35:42;;;;;;;37.88;18.02;;;1.80;99.90;;;;;;5032462;28;20052;-70
2020/12/01 06:38:20;;;;;;;38.60;19.45;;;1.80;99.90;;;;;;5030567;28;20507;-70
2020/12/01 06:40:54;;;;;;;40.58;19.98;;;1.80;99.90;;;;;;5030197;28;20036;-71
2020/12/01 06:43:33;;;;;;;38.95;19.05;;;1.90;99.90;;;;;;5029812;28;20048;-71
2020/12/01 06:45:59;;;;;;;44.13;19.67;;;1.90;99.90;;;;;;5028026;28;20343;-71
2020/12/01 06:48:36;;;;;;;43.13;19.20;;;1.90;99.90;;;;;;5031287;28;20112;-71
2020/12/01 06:51:02;;;;;;;39.40;18.48;;;1.90;99.90;;;;;;5026975;28;20030;-71
2020/12/01 06:53:31;;;;;;;42.38;20.20;;;1.90;99.90;;;;;;5029054;28;20038;-71
2020/12/01 06:55:58;;;;;;;42.95;20.45;;;1.80;99.90;;;;;;5026941;28;20025;-71
2020/12/01 06:58:27;;;;;;;45.10;21.17;;;1.80;99.90;;;;;;5035603;28;20397;-71
2020/12/01 07:01:05;;;;;;;44.33;19.92;;;1.80;99.90;;;;;;5029402;28;20059;-71
2020/12/01 07:03:33;;;;;;;41.60;20.23;;;1.80;99.90;;;;;;5023533;28;20054;-72
2020/12/01 07:06:13;;;;;;;33.83;17.10;;;1.80;99.90;;;;;;5031534;28;20328;-71
2020/12/01 07:08:39;;;;;;;40.47;18.95;;;1.90;99.90;;;;;;5034844;28;20020;-71
2020/12/01 07:11:10;;;;;;;40.65;18.83;;;1.90;99.90;;;;;;5031045;28;20515;-71
2020/12/01 07:14:03;;;;;;;42.03;19.95;;;1.90;99.90;;;;;;5032789;28;20104;-71
2020/12/01 07:16:39;;;;;;;37.53;19.08;;;1.90;99.90;;;;;;5031133;28;20057;-71
2020/12/01 07:19:13;;;;;;;44.78;21.98;;;1.90;99.90;;;;;;5028434;28;20057;-71
2020/12/01 07:22:04;;;;;;;40.45;20.75;;;1.90;99.90;;;;;;5018239;28;20061;-70
2020/12/01 07:25:10;;;;;;;49.95;22.35;;;1.90;99.90;;;;;;5020486;28;20041;-70
2020/12/01 07:27:54;;;;;;;37.60;19.13;;;2.00;99.90;;;;;;5030849;28;20029;-71
2020/12/01 07:30:23;;;;;;;36.25;19.38;;;2.00;99.90;;;;;;5030357;28;20103;-71
2020/12/01 07:32:50;;;;;;;44.13;21.80;;;2.00;99.90;;;;;;5029736;28;20108;-71
2020/12/01 07:35:29;;;;;;;41.28;20.02;;;2.00;99.90;;;;;;5028534;28;20067;-70
2020/12/01 07:38:21;;;;;;;44.45;20.45;;;2.00;99.90;;;;;;5019937;28;20037;-70
2020/12/01 07:40:57;;;;;;;35.77;15.80;;;2.00;99.90;;;;;;5031544;28;20110;-71
2020/12/01 07:43:23;;;;;;;43.28;19.92;;;2.00;99.90;;;;;;5036787;28;20112;-71
2020/12/01 07:46:04;;;;;;;45.05;20.55;;;2.00;99.90;;;;;;5031836;28;20379;-70
2020/12/01 07:48:31;;;;;;;46.63;20.05;;;2.00;99.90;;;;;;5044775;28;20032;-71
2020/12/01 07:51:05;;;;;;;50.65;22.20;;;2.00;99.90;;;;;;5047045;28;20044;-71
2020/12/01 07:53:33;;;;;;;44.78;21.25;;;2.00;99.90;;;;;;5033360;28;20033;-71
2020/12/01 07:56:04;;;;;;;44.78;20.45;;;2.00;99.90;;;;;;5027457;28;20037;-69
2020/12/01 07:58:32;;;;;;;45.65;20.88;;;2.00;99.90;;;;;;5020648;28;20041;-69
2020/12/01 08:01:06;;;;;;;55.08;22.70;;;2.10;99.90;;;;;;5032832;28;20029;-69
2020/12/01 08:03:38;;;;;;;37.67;18.88;;;2.10;99.90;;;;;;5030990;28;20029;-69
2020/12/01 08:06:14;;;;;;;41.35;16.00;;;2.00;99.90;;;;;;5029103;28;20458;-69
2020/12/01 08:08:44;;;;;;;36.88;18.95;;;2.00;99.90;;;;;;5011485;28;20042;-69
2020/12/01 08:11:14;;;;;;;35.38;17.70;;;2.00;99.90;;;;;;5028049;28;20381;-69
2020/12/01 08:13:43;;;;;;;42.72;21.58;;;2.10;99.90;;;;;;5009097;28;20024;-69
2020/12/01 08:16:15;;;;;;;42.88;20.38;;;2.10;99.90;;;;;;5021466;28;20722;-69
2020/12/01 08:18:44;;;;;;;41.05;20.58;;;2.10;99.90;;;;;;5046358;28;20029;-69
2020/12/01 08:21:10;;;;;;;36.60;18.45;;;2.10;99.90;;;;;;5024494;28;20048;-69
2020/12/01 08:23:36;;;;;;;39.50;18.25;;;2.10;99.90;;;;;;5030860;28;20037;-69
2020/12/01 08:26:29;;;;;;;51.42;23.10;;;2.20;99.90;;;;;;5029660;28;20033;-69
2020/12/01 08:29:29;;;;;;;37.08;18.20;;;2.20;99.90;;;;;;5033050;28;20040;-69
2020/12/01 08:32:32;;;;;;;31.98;17.55;;;2.10;99.90;;;;;;5025905;28;20116;-69
2020/12/01 08:35:12;;;;;;;31.13;16.75;;;2.20;99.90;;;;;;5032942;28;20049;-69
2020/12/01 08:37:44;;;;;;;33.60;16.73;;;2.20;99.90;;;;;;5017618;28;20032;-69
2020/12/01 08:40:37;;;;;;;40.08;19.77;;;2.20;99.90;;;;;;5033274;28;20021;-69
2020/12/01 08:43:23;;;;;;;37.65;18.80;;;2.20;99.90;;;;;;5029873;28;20021;-69
2020/12/01 08:46:07;;;;;;;36.10;17.98;;;2.20;99.90;;;;;;5016321;28;20029;-69
2020/12/01 08:48:41;;;;;;;38.15;18.35;;;2.30;99.90;;;;;;5043600;28;20021;-69
2020/12/01 08:51:29;;;;;;;42.03;20.80;;;2.30;99.90;;;;;;5029873;28;20116;-69
2020/12/01 08:54:20;;;;;;;38.45;18.58;;;2.30;99.90;;;;;;5018789;28;20036;-69
2020/12/01 08:56:48;;;;;;;43.00;20.73;;;2.30;99.90;;;;;;5032298;28;20116;-69
2020/12/01 08:59:41;;;;;;;40.50;20.15;;;2.30;99.90;;;;;;5031592;28;20095;-69
2020/12/01 09:02:11;;;;;;;30.60;16.73;;;2.30;99.90;;;;;;5025496;28;20033;-69
2020/12/01 09:04:37;;;;;;;31.52;16.15;;;2.30;99.90;;;;;;5029029;28;20439;-69
2020/12/01 09:07:20;;;;;;;31.75;16.27;;;2.40;99.90;;;;;;5027434;28;20486;-69
2020/12/01 09:09:50;;;;;;;42.20;19.63;;;2.40;99.90;;;;;;5032091;28;20060;-69
2020/12/01 09:12:52;;;;;;;34.22;17.33;;;2.40;99.90;;;;;;5029338;28;20465;-69
2020/12/01 09:23:32;;;;;;;25.30;14.07;;;2.50;99.90;;;;;;5029722;28;20052;-69
2020/12/01 09:26:00;;;;;;;35.80;18.55;;;2.50;99.90;;;;;;5027265;28;20438;-69
2020/12/01 09:28:28;;;;;;;36.78;19.15;;;2.50;99.90;;;;;;5028924;28;20026;-69
2020/12/01 09:31:02;;;;;;;35.55;18.38;;;2.50;99.90;;;;;;5028938;28;20038;-69
2020/12/01 09:33:31;;;;;;;35.75;19.17;;;2.50;99.90;;;;;;5025804;28;20025;-69
2020/12/01 09:35:59;;;;;;;37.20;19.40;;;2.50;99.90;;;;;;5009695;28;20556;-69
2020/12/01 09:38:25;;;;;;;35.10;18.40;;;2.60;99.90;;;;;;5025797;28;20030;-69
2020/12/01 09:40:52;;;;;;;44.72;22.27;;;2.60;99.90;;;;;;5027528;28;20040;-69
2020/12/01 09:43:36;;;;;;;37.10;18.13;;;2.60;99.90;;;;;;5032071;28;20059;-68
2020/12/01 09:46:07;;;;;;;35.38;19.10;;;2.60;99.90;;;;;;5032878;28;20453;-68
2020/12/01 09:48:38;;;;;;;35.30;17.97;;;2.60;99.90;;;;;;5025587;28;20503;-69
2020/12/01 09:51:04;;;;;;;38.88;19.55;;;2.60;99.90;;;;;;5030535;28;20746;-69
2020/12/01 10:09:18;;;;;;;37.05;18.42;;;2.80;99.90;;;;;;5028987;28;20025;-69
2020/12/01 10:12:12;;;;;;;42.95;21.05;;;2.80;99.90;;;;;;5030597;28;20030;-69
2020/12/01 10:32:32;;;;;;;76.13;25.65;;;2.70;99.90;;;;;;5035021;28;20029;-69
2020/12/01 10:37:33;;;;;;;51.05;23.08;;;2.70;99.90;;;;;;5027169;28;20021;-75
2020/12/01 10:39:58;;;;;;;47.53;21.38;;;2.70;99.90;;;;;;5031447;28;20045;-76
2020/12/01 10:42:24;;;;;;;59.35;23.27;;;2.70;99.90;;;;;;5031369;28;20025;-77
2020/12/01 10:44:50;;;;;;;46.20;21.80;;;2.80;99.90;;;;;;5029129;28;20032;-74
2020/12/01 10:47:19;;;;;;;40.40;20.98;;;2.80;99.90;;;;;;5031020;28;20037;-69
2020/12/01 10:49:47;;;;;;;36.90;19.23;;;2.80;99.90;;;;;;5028086;28;20021;-69
2020/12/01 10:52:12;;;;;;;37.83;18.83;;;2.80;99.90;;;;;;5029754;28;20455;-69
2020/12/01 10:54:40;;;;;;;45.50;21.92;;;2.80;99.90;;;;;;5033445;28;20130;-68
2020/12/01 10:57:06;;;;;;;40.20;21.20;;;2.90;99.90;;;;;;5033676;28;20036;-68
2020/12/01 10:59:32;;;;;;;45.85;22.33;;;2.90;99.90;;;;;;5030834;28;20056;-69
2020/12/01 11:02:00;;;;;;;60.05;24.80;;;2.90;99.90;;;;;;5029482;28;20558;-68
2020/12/01 11:04:25;;;;;;;46.55;22.75;;;2.90;99.90;;;;;;5033818;28;20033;-69
2020/12/01 11:06:56;;;;;;;45.63;22.63;;;2.90;99.90;;;;;;5031799;28;20028;-69
2020/12/01 11:09:21;;;;;;;151.98;26.88;;;2.90;99.90;;;;;;5030340;28;20023;-68
2020/12/01 11:11:47;;;;;;;78.72;22.92;;;2.90;99.90;;;;;;5030527;28;20461;-68
2020/12/01 11:14:15;;;;;;;48.63;22.25;;;2.90;99.90;;;;;;5027096;28;20166;-69
2020/12/01 11:16:41;;;;;;;189.18;26.80;;;2.90;99.90;;;;;;5031519;28;20030;-69
2020/12/01 11:19:06;;;;;;;45.35;21.75;;;2.90;99.90;;;;;;5032537;28;20086;-68
2020/12/01 11:21:36;;;;;;;170.23;26.52;;;2.90;99.90;;;;;;5032778;28;20049;-69
2020/12/01 11:24:04;;;;;;;112.00;24.45;;;2.90;99.90;;;;;;5047352;28;20033;-69
2020/12/01 11:26:30;;;;;;;39.65;21.02;;;2.90;99.90;;;;;;5029938;28;20867;-68
2020/12/01 11:28:56;;;;;;;79.15;24.83;;;2.90;99.90;;;;;;5030561;28;20112;-68
2020/12/01 11:31:21;;;;;;;34.75;19.50;;;2.90;99.90;;;;;;5032976;28;20459;-68
2020/12/01 11:34:08;;;;;;;37.20;19.70;;;2.90;99.90;;;;;;5033429;28;20108;-68
2020/12/01 11:36:34;;;;;;;47.92;21.23;;;3.00;99.90;;;;;;5032074;28;20032;-69
2020/12/01 11:39:03;;;;;;;123.50;26.83;;;3.00;99.90;;;;;;5032323;28;20640;-68
2020/12/01 11:41:29;;;;;;;49.70;22.38;;;2.90;99.90;;;;;;5029395;28;20595;-69
2020/12/01 11:43:54;;;;;;;189.25;26.90;;;2.90;99.90;;;;;;5032867;28;20032;-69
2020/12/01 11:46:20;;;;;;;53.47;20.98;;;2.90;99.90;;;;;;5033223;28;20041;-68
2020/12/01 11:48:46;;;;;;;63.33;20.80;;;2.90;99.90;;;;;;5031775;28;20029;-68
2020/12/01 11:51:15;;;;;;;36.22;20.65;;;2.90;99.90;;;;;;5015738;28;20049;-68
2020/12/01 11:53:41;;;;;;;42.83;21.30;;;2.90;99.90;;;;;;5032956;28;20051;-68
2020/12/01 11:56:09;;;;;;;153.88;26.15;;;3.00;99.90;;;;;;5027843;28;20100;-68
2020/12/01 11:58:37;;;;;;;112.78;24.73;;;3.00;99.90;;;;;;5035920;28;20029;-68
2020/12/01 12:01:05;;;;;;;56.65;22.42;;;2.90;99.90;;;;;;5033110;28;20051;-68
2020/12/01 12:03:31;;;;;;;57.33;22.77;;;2.90;99.90;;;;;;5029527;28;20091;-68
2020/12/01 12:05:57;;;;;;;53.22;21.67;;;3.00;99.90;;;;;;5030277;28;20026;-69
2020/12/01 12:08:22;;;;;;;67.43;24.45;;;3.00;99.90;;;;;;5030365;28;20490;-71
2020/12/01 12:10:50;;;;;;;61.63;25.75;;;3.00;99.90;;;;;;5027221;28;20056;-68
2020/12/01 12:13:18;;;;;;;59.35;22.80;;;3.00;99.90;;;;;;5032480;28;20454;-68
2020/12/01 12:15:44;;;;;;;64.15;22.75;;;3.00;99.90;;;;;;5029136;28;20044;-68
2020/12/01 12:18:09;;;;;;;48.60;21.88;;;3.00;99.90;;;;;;5027695;28;20370;-68
2020/12/01 12:20:37;;;;;;;57.90;21.48;;;3.00;99.90;;;;;;5027027;28;20100;-69
2020/12/01 12:23:03;;;;;;;40.65;20.35;;;3.10;99.90;;;;;;5028629;28;20048;-68
2020/12/01 12:25:31;;;;;;;41.20;21.75;;;3.10;99.90;;;;;;5031724;28;20127;-68
2020/12/01 12:27:57;;;;;;;48.05;22.02;;;3.10;99.90;;;;;;5014728;28;20033;-68
2020/12/01 12:30:23;;;;;;;56.33;22.67;;;3.10;99.90;;;;;;5031297;28;20041;-68
2020/12/01 12:32:51;;;;;;;45.50;22.00;;;3.10;99.90;;;;;;5030501;28;20025;-68
2020/12/01 12:35:17;;;;;;;75.47;24.42;;;3.20;99.90;;;;;;5032589;28;20095;-68
2020/12/01 12:37:44;;;;;;;67.78;22.95;;;3.20;99.90;;;;;;5027394;28;20120;-70
2020/12/01 12:40:10;;;;;;;70.57;24.90;;;3.20;99.90;;;;;;5028813;28;20536;-73
2020/12/01 12:42:35;;;;;;;81.78;24.70;;;3.20;99.90;;;;;;5027841;28;20105;-69
2020/12/01 12:45:01;;;;;;;57.33;22.17;;;3.20;99.90;;;;;;5032877;28;20029;-68
2020/12/01 12:47:29;;;;;;;36.97;20.80;;;3.10;99.90;;;;;;5026839;28;20034;-68
2020/12/01 12:49:54;;;;;;;49.88;20.65;;;3.10;99.90;;;;;;5031772;28;20444;-68
2020/12/01 12:52:20;;;;;;;40.95;20.77;;;3.10;99.90;;;;;;5026901;28;20056;-68
2020/12/01 12:54:46;;;;;;;70.80;22.30;;;3.20;99.90;;;;;;5031046;28;20545;-68
2020/12/01 12:57:11;;;;;;;55.00;23.38;;;3.10;99.90;;;;;;5027193;28;20055;-69
2020/12/01 12:59:37;;;;;;;42.67;21.08;;;3.20;99.90;;;;;;5033799;28;20037;-69
2020/12/01 13:02:05;;;;;;;55.95;22.30;;;3.20;99.90;;;;;;5028858;28;20472;-69
2020/12/01 13:04:31;;;;;;;31.90;18.63;;;3.20;99.90;;;;;;5029797;28;20036;-69
2020/12/01 13:06:59;;;;;;;51.88;22.50;;;3.20;99.90;;;;;;5025064;28;20033;-68
2020/12/01 13:09:27;;;;;;;32.58;19.45;;;3.20;99.90;;;;;;5031284;28;21826;-69
2020/12/01 13:11:52;;;;;;;40.80;22.17;;;3.20;99.90;;;;;;5030549;28;20120;-69
2020/12/01 13:14:24;;;;;;;31.10;18.23;;;3.30;99.90;;;;;;5031356;28;20117;-69
2020/12/01 13:16:50;;;;;;;31.58;18.20;;;3.30;99.90;;;;;;5031602;28;20450;-68
2020/12/01 13:19:16;;;;;;;41.00;22.55;;;3.30;99.90;;;;;;5013586;28;20163;-68
2020/12/01 13:21:44;;;;;;;32.72;18.90;;;3.30;99.90;;;;;;5033159;28;20120;-68
2020/12/01 13:24:10;;;;;;;29.42;17.48;;;3.30;99.90;;;;;;5023870;28;20080;-69
2020/12/01 13:26:36;;;;;;;27.33;17.02;;;3.30;99.90;;;;;;5029558;28;20055;-68
2020/12/01 13:29:01;;;;;;;27.85;17.00;;;3.30;99.90;;;;;;5032599;28;20077;-68
2020/12/01 13:31:29;;;;;;;29.48;18.60;;;3.30;99.90;;;;;;5032202;28;20429;-69
2020/12/01 13:33:55;;;;;;;31.58;19.10;;;3.30;99.90;;;;;;5029660;28;20120;-68
2020/12/01 13:36:24;;;;;;;28.63;18.17;;;3.30;99.90;;;;;;5030047;28;20112;-68
2020/12/01 13:38:50;;;;;;;28.20;18.13;;;3.40;99.90;;;;;;5030486;28;20143;-69
2020/12/01 13:41:18;;;;;;;29.10;18.92;;;3.40;99.90;;;;;;5031808;28;20112;-68